Iaciara, Brazil
Current Conditions -  °F | °C
As of 6:00 AM on Saturday 29 Nov 2014 (Local Time) from SBBR Reporting Station
Moderate Fog Moderate Fog  
Wind Chill: 64°   Ceiling: 100
Heat Index: 64°   Visibility: 0.12mi
Dew Point: 61°   Wind: 0mph
Humidity: 88%   Direction: NA
Pressure: 30.06"   Gusts: NA
Location:  14.1°S, 46.63°W
Report Text: SBBR 290800Z 00000KT 0200 R11R/P0450 R29L/P2000 R11L////// R29R/0650 FG OVC001 18/16 Q1018
Loading
Personal Weather Stations






























Interactive Weather Map New forecast layout! Learn more

10-Day Weather Forecast

Advertisements
Track Severe Weather on mobile